createdAt,value
2018-04-26T00:00:10.416Z,10.18
2018-04-26T00:01:10.078Z,10.2
2018-04-26T00:02:10.097Z,10.18
2018-04-26T00:03:10.121Z,10.29
2018-04-26T00:04:10.395Z,10.22
2018-04-26T00:05:10.157Z,10.12
2018-04-26T00:06:09.917Z,10.22
2018-04-26T00:07:10.196Z,10.18
2018-04-26T00:08:10.480Z,10.02
2018-04-26T00:10:24.915Z,9.93
2018-04-26T00:12:10.294Z,9.93
2018-04-26T00:13:10.361Z,9.9
2018-04-26T00:14:10.335Z,9.81
2018-04-26T00:15:10.355Z,9.65
2018-04-26T00:16:10.633Z,9.84
2018-04-26T00:17:25.319Z,9.69
2018-04-26T00:18:10.415Z,9.58
2018-04-26T00:19:10.697Z,9.56
2018-04-26T00:20:10.716Z,9.53
2018-04-26T00:21:10.732Z,9.57
2018-04-26T00:22:10.750Z,9.4
2018-04-26T00:23:10.776Z,9.4
2018-04-26T00:25:10.824Z,9.51
2018-04-26T00:26:25.494Z,9.32
2018-04-26T00:27:10.590Z,9.32
2018-04-26T00:28:10.623Z,9.36
2018-04-26T00:29:10.896Z,9.42
2018-04-26T00:30:10.909Z,9.39
2018-04-26T00:31:10.671Z,9.4
2018-04-26T00:32:25.610Z,9.39
2018-04-26T00:33:10.970Z,9.39
2018-04-26T00:34:10.994Z,9.36
2018-04-26T00:35:11.010Z,9.28
2018-04-26T00:36:11.032Z,9.28
2018-04-26T00:37:11.060Z,9.21
2018-04-26T00:38:11.066Z,9.17
2018-04-26T00:41:10.868Z,9.18
2018-04-26T00:42:25.810Z,9.15
2018-04-26T00:43:10.921Z,9.17
2018-04-26T00:44:11.190Z,9.11
2018-04-26T00:45:10.947Z,9.15
2018-04-26T00:46:11.229Z,9.1
2018-04-26T00:47:11.249Z,9.08
2018-04-26T00:48:11.360Z,9.02
2018-04-26T00:49:11.025Z,8.98
2018-04-26T00:50:11.303Z,9.05
2018-04-26T00:51:11.333Z,9.1
2018-04-26T00:52:11.081Z,8.99
2018-04-26T00:53:11.361Z,8.98
2018-04-26T00:54:11.382Z,8.92
2018-04-26T00:55:11.406Z,8.92
2018-04-26T00:56:11.420Z,8.87
2018-04-26T00:57:26.100Z,8.8
2018-04-26T00:58:26.128Z,8.92
2018-04-26T00:59:11.223Z,8.86
2018-04-26T01:00:11.499Z,8.84
2018-04-26T01:01:11.520Z,8.83
2018-04-26T01:02:11.283Z,8.98
2018-04-26T01:03:11.299Z,8.86
2018-04-26T01:04:26.237Z,8.83
2018-04-26T01:05:11.609Z,8.86
2018-04-26T01:06:11.718Z,8.86
2018-04-26T01:07:11.671Z,8.79
2018-04-26T01:08:11.395Z,8.8
2018-04-26T01:09:11.675Z,8.76
2018-04-26T01:10:11.439Z,8.79
2018-04-26T01:11:11.714Z,8.8
2018-04-26T01:13:11.752Z,8.89
2018-04-26T01:14:11.770Z,8.91
2018-04-26T01:15:11.534Z,8.79
2018-04-26T01:16:11.817Z,8.89
2018-04-26T01:17:11.830Z,8.8
2018-04-26T01:18:11.852Z,8.79
2018-04-26T01:19:26.529Z,8.66
2018-04-26T01:20:26.601Z,8.71
2018-04-26T01:21:11.647Z,8.73
2018-04-26T01:22:11.925Z,8.62
2018-04-26T01:23:11.948Z,8.71
2018-04-26T01:24:11.967Z,8.74
2018-04-26T01:25:11.992Z,8.74
2018-04-26T01:26:12.005Z,8.68
2018-04-26T01:27:12.025Z,8.71
2018-04-26T01:28:11.782Z,8.7
2018-04-26T01:29:26.723Z,8.68
2018-04-26T01:30:12.083Z,8.66
2018-04-26T01:31:12.102Z,8.56
2018-04-26T01:32:12.120Z,8.7
2018-04-26T01:33:12.137Z,8.62
2018-04-26T01:34:12.163Z,8.53
2018-04-26T01:35:11.919Z,8.5
2018-04-26T01:36:11.941Z,8.55
2018-04-26T01:37:12.222Z,8.34
2018-04-26T01:38:12.233Z,8.48
2018-04-26T01:39:26.912Z,8.3
2018-04-26T01:40:12.273Z,8.43
2018-04-26T01:41:12.295Z,8.34
2018-04-26T01:42:12.313Z,8.38
2018-04-26T01:43:12.334Z,8.41
2018-04-26T01:44:27.021Z,8.43
2018-04-26T01:46:12.391Z,8.3
2018-04-26T01:47:12.156Z,8.45
2018-04-26T01:48:12.436Z,8.45
2018-04-26T01:49:27.110Z,8.43
2018-04-26T01:51:12.484Z,8.37
2018-04-26T01:52:12.515Z,8.4
2018-04-26T01:53:12.526Z,8.38
2018-04-26T01:54:12.542Z,8.41
2018-04-26T01:55:12.574Z,8.41
2018-04-26T01:56:12.583Z,8.41
2018-04-26T01:57:12.606Z,8.43
2018-04-26T01:58:12.618Z,8.33
2018-04-26T01:59:12.386Z,8.34
2018-04-26T02:00:12.397Z,8.38
2018-04-26T02:01:27.341Z,8.34
2018-04-26T02:02:12.692Z,8.36
2018-04-26T02:03:12.723Z,8.33
2018-04-26T02:05:12.752Z,8.38
2018-04-26T02:06:12.772Z,8.38
2018-04-26T02:07:27.452Z,8.34
2018-04-26T02:08:27.473Z,8.33
2018-04-26T02:09:12.573Z,8.34
2018-04-26T02:10:12.672Z,8.3
2018-04-26T02:11:12.868Z,8.37
2018-04-26T02:12:12.886Z,8.23
2018-04-26T02:13:12.910Z,8.2
2018-04-26T02:14:12.939Z,8.16
2018-04-26T02:15:12.688Z,8.1
2018-04-26T02:16:12.964Z,8.23
2018-04-26T02:17:27.382Z,8.15
2018-04-26T02:18:12.742Z,8.15
2018-04-26T02:19:12.760Z,8.08
2018-04-26T02:20:13.045Z,7.98
2018-04-26T02:21:13.060Z,7.93
2018-04-26T02:22:12.817Z,8.02
2018-04-26T02:23:12.841Z,7.95
2018-04-26T02:24:13.111Z,7.93
2018-04-26T02:25:12.879Z,8.02
2018-04-26T02:26:13.161Z,7.98
2018-04-26T02:27:12.917Z,7.97
2018-04-26T02:28:12.930Z,7.98
2018-04-26T02:29:12.950Z,8.1
2018-04-26T02:30:13.229Z,7.98
2018-04-26T02:31:13.281Z,8
2018-04-26T02:32:27.668Z,8.02
2018-04-26T02:33:13.285Z,7.93
2018-04-26T02:34:13.312Z,7.85
2018-04-26T02:35:13.335Z,7.89
2018-04-26T02:37:13.100Z,7.9
2018-04-26T02:38:28.040Z,7.85
2018-04-26T02:39:13.143Z,7.89
2018-04-26T02:40:13.419Z,7.89
2018-04-26T02:41:13.185Z,7.74
2018-04-26T02:42:13.457Z,7.93
2018-04-26T02:43:13.214Z,7.89
2018-04-26T02:44:13.494Z,7.86
2018-04-26T02:45:13.524Z,7.8
2018-04-26T02:46:13.274Z,7.86
2018-04-26T02:47:13.549Z,7.8
2018-04-26T02:48:13.565Z,7.64
2018-04-26T02:49:13.595Z,7.71
2018-04-26T02:50:13.349Z,7.69
2018-04-26T02:51:13.625Z,7.68
2018-04-26T02:52:13.385Z,7.8
2018-04-26T02:53:13.666Z,7.68
2018-04-26T02:54:13.686Z,7.77
2018-04-26T02:55:13.702Z,7.77
2018-04-26T02:56:13.722Z,7.68
2018-04-26T02:57:13.738Z,7.68
2018-04-26T02:58:13.765Z,7.6
2018-04-26T02:59:13.776Z,7.63
2018-04-26T03:00:13.799Z,7.61
2018-04-26T03:02:13.852Z,7.64
2018-04-26T03:03:13.868Z,7.63
2018-04-26T03:04:28.533Z,7.69
2018-04-26T03:05:13.633Z,7.64
2018-04-26T03:06:28.570Z,7.69
2018-04-26T03:07:13.674Z,7.68
2018-04-26T03:08:13.827Z,7.8
2018-04-26T03:09:13.714Z,7.8
2018-04-26T03:10:13.779Z,7.77
2018-04-26T03:11:13.772Z,7.85
2018-04-26T03:12:13.768Z,7.83
2018-04-26T03:13:14.039Z,7.95
2018-04-26T03:14:13.797Z,7.98
2018-04-26T03:15:13.561Z,7.9
2018-04-26T03:16:14.101Z,7.89
2018-04-26T03:17:14.115Z,8.04
2018-04-26T03:18:14.128Z,8.07
2018-04-26T03:19:14.236Z,8
2018-04-26T03:21:13.932Z,7.83
2018-04-26T03:22:14.206Z,7.89
2018-04-26T03:23:14.226Z,7.85
2018-04-26T03:25:14.261Z,8.01
2018-04-26T03:26:14.123Z,7.9
2018-04-26T03:27:13.782Z,7.89
2018-04-26T03:28:14.057Z,7.89
2018-04-26T03:29:14.339Z,7.89
2018-04-26T03:30:14.360Z,7.92
2018-04-26T03:31:14.903Z,7.87
2018-04-26T03:32:14.394Z,7.67
2018-04-26T03:33:14.442Z,7.77
2018-04-26T03:34:14.428Z,7.69
2018-04-26T03:35:14.446Z,7.6
2018-04-26T03:36:29.125Z,7.72
2018-04-26T03:39:14.528Z,7.64
2018-04-26T03:41:14.570Z,7.57
2018-04-26T03:42:14.577Z,7.64
2018-04-26T03:43:14.608Z,7.57
2018-04-26T03:44:14.362Z,7.69
2018-04-26T03:45:14.374Z,7.58
2018-04-26T03:46:14.657Z,7.57
2018-04-26T03:47:14.413Z,7.68
2018-04-26T03:48:14.688Z,7.64
2018-04-26T03:49:14.712Z,7.55
2018-04-26T03:50:14.728Z,7.52
2018-04-26T03:51:14.489Z,7.48
2018-04-26T03:52:29.426Z,7.49
2018-04-26T03:54:14.811Z,7.61
2018-04-26T03:55:14.822Z,7.61
2018-04-26T03:56:14.840Z,7.46
2018-04-26T03:57:14.602Z,7.63
2018-04-26T03:58:14.619Z,7.55
2018-04-26T03:59:29.556Z,7.6
2018-04-26T04:00:14.914Z,7.63
2018-04-26T04:01:14.932Z,7.6
2018-04-26T04:02:14.956Z,7.6
2018-04-26T04:05:14.750Z,7.63
2018-04-26T04:07:29.706Z,7.68
2018-04-26T04:08:15.066Z,7.58
2018-04-26T04:09:29.747Z,7.55
2018-04-26T04:10:15.102Z,7.58
2018-04-26T04:11:15.128Z,7.72
2018-04-26T04:12:14.879Z,7.68
2018-04-26T04:13:14.906Z,7.69
2018-04-26T04:14:15.176Z,7.75
2018-04-26T04:15:15.198Z,7.77
2018-04-26T04:16:15.214Z,7.74
2018-04-26T04:17:15.235Z,7.79
2018-04-26T04:18:14.997Z,7.82
2018-04-26T04:19:15.277Z,7.8
2018-04-26T04:20:15.289Z,7.87
2018-04-26T04:21:15.311Z,7.87
2018-04-26T04:23:15.345Z,8.04
2018-04-26T04:24:15.108Z,8.1
2018-04-26T04:25:15.129Z,8.23
2018-04-26T04:26:15.146Z,8.18
2018-04-26T04:27:15.159Z,8.2
2018-04-26T04:28:15.447Z,8.23
2018-04-26T04:29:15.464Z,8.34
2018-04-26T04:30:15.476Z,8.43
2018-04-26T04:31:15.498Z,8.52
2018-04-26T04:32:15.514Z,8.62
2018-04-26T04:33:15.540Z,8.71
2018-04-26T04:34:15.561Z,8.81
2018-04-26T04:35:15.812Z,8.89
2018-04-26T04:36:15.597Z,8.94
2018-04-26T04:37:15.621Z,8.98
2018-04-26T04:38:15.373Z,8.98
2018-04-26T04:39:30.309Z,8.98
2018-04-26T04:40:15.670Z,9.01
2018-04-26T04:42:30.373Z,9.24
2018-04-26T04:43:15.732Z,9.35
2018-04-26T04:44:15.496Z,9.46
2018-04-26T04:45:15.937Z,9.48
2018-04-26T04:46:15.791Z,9.65
2018-04-26T04:47:15.815Z,9.68
2018-04-26T04:48:15.308Z,9.9
2018-04-26T04:49:15.589Z,10.15
2018-04-26T04:50:15.864Z,10.34
2018-04-26T04:51:15.985Z,10.73
2018-04-26T04:52:15.650Z,11.19
2018-04-26T04:53:16.001Z,11.37
2018-04-26T04:55:30.623Z,11.65
2018-04-26T04:57:16.003Z,11.44
2018-04-26T04:58:30.690Z,11.17
2018-04-26T04:59:15.786Z,11
2018-04-26T05:00:16.066Z,10.91
2018-04-26T05:01:16.091Z,10.7
2018-04-26T05:02:16.111Z,10.71
2018-04-26T05:03:16.131Z,10.71
2018-04-26T05:04:16.151Z,10.61
2018-04-26T05:05:16.172Z,10.61
2018-04-26T05:07:16.301Z,10.78
2018-04-26T05:08:16.239Z,11.21
2018-04-26T05:09:16.257Z,11.51
2018-04-26T05:10:16.274Z,11.57
2018-04-26T05:11:30.982Z,11.57
2018-04-26T05:12:16.323Z,11.6
2018-04-26T05:13:16.077Z,11.46
2018-04-26T05:14:16.360Z,11.43
2018-04-26T05:15:16.379Z,11.22
2018-04-26T05:16:16.406Z,11.22
2018-04-26T05:17:16.421Z,11.28
2018-04-26T05:18:16.186Z,11.37
2018-04-26T05:19:31.122Z,11.44
2018-04-26T05:20:16.229Z,11.4
2018-04-26T05:21:16.248Z,11.64
2018-04-26T05:22:31.183Z,12.14
2018-04-26T05:23:16.549Z,12.45
2018-04-26T05:24:16.568Z,12.47
2018-04-26T05:25:16.591Z,12.39
2018-04-26T05:26:16.353Z,12.21
2018-04-26T05:27:31.290Z,12.04
2018-04-26T05:28:16.394Z,12.07
2018-04-26T05:29:16.685Z,11.88
2018-04-26T05:30:16.697Z,11.79
2018-04-26T05:32:16.743Z,11.51
2018-04-26T05:33:16.758Z,11.54
2018-04-26T05:34:16.780Z,11.37
2018-04-26T05:35:16.545Z,11.29
2018-04-26T05:36:16.566Z,11.21
2018-04-26T05:37:16.848Z,11.17
2018-04-26T05:38:16.872Z,11.07
2018-04-26T05:39:16.885Z,10.91
2018-04-26T05:40:16.647Z,10.85
2018-04-26T05:41:16.925Z,10.7
2018-04-26T05:42:31.606Z,10.64
2018-04-26T05:43:16.972Z,10.64
2018-04-26T05:44:16.839Z,10.68
2018-04-26T05:46:16.770Z,10.67
2018-04-26T05:47:17.123Z,10.7
2018-04-26T05:48:16.811Z,10.73
2018-04-26T05:49:16.835Z,10.68
2018-04-26T05:50:16.854Z,10.74
2018-04-26T05:51:17.132Z,10.76
2018-04-26T05:52:17.151Z,10.76
2018-04-26T05:54:17.194Z,10.73
2018-04-26T05:55:17.215Z,10.88
2018-04-26T05:56:16.976Z,10.81
2018-04-26T05:57:17.002Z,10.91
2018-04-26T05:58:17.376Z,10.96
2018-04-26T05:59:17.301Z,10.97
2018-04-26T06:01:17.343Z,11.09
2018-04-26T06:02:17.101Z,10.96
2018-04-26T06:03:17.379Z,11.06
2018-04-26T06:04:17.398Z,11.19
2018-04-26T06:05:17.414Z,11.33
2018-04-26T06:06:17.543Z,11.42
2018-04-26T06:07:17.199Z,11.7
2018-04-26T06:08:17.488Z,12.14
2018-04-26T06:09:17.500Z,12.57
2018-04-26T06:11:17.678Z,13.05
2018-04-26T06:12:17.564Z,13.12
2018-04-26T06:13:17.604Z,13.15
2018-04-26T06:14:32.263Z,13.04
2018-04-26T06:15:17.626Z,13
2018-04-26T06:16:17.398Z,12.92
2018-04-26T06:17:17.856Z,12.9
2018-04-26T06:18:17.689Z,12.92
2018-04-26T06:19:17.710Z,12.83
2018-04-26T06:20:17.740Z,12.83
2018-04-26T06:21:17.754Z,12.92
2018-04-26T06:22:17.775Z,12.93
2018-04-26T06:23:17.797Z,12.96
2018-04-26T06:25:17.840Z,12.9
2018-04-26T06:26:17.874Z,12.75
2018-04-26T06:28:17.902Z,12.78
2018-04-26T06:29:17.665Z,12.65
2018-04-26T06:31:17.710Z,12.65
2018-04-26T06:33:17.750Z,12.46
2018-04-26T06:34:18.035Z,12.46
2018-04-26T06:35:18.062Z,12.42
2018-04-26T06:36:17.830Z,12.32
2018-04-26T06:37:32.755Z,12.23
2018-04-26T06:38:18.116Z,12.2
2018-04-26T06:39:32.797Z,12.19
2018-04-26T06:40:17.901Z,12.19
2018-04-26T06:41:18.186Z,12.19
2018-04-26T06:42:18.373Z,12.28
2018-04-26T06:43:18.219Z,12.27
2018-04-26T06:44:17.982Z,12.24
2018-04-26T06:45:18.266Z,12.16
2018-04-26T06:46:32.941Z,12.2
2018-04-26T06:47:18.404Z,12.1
2018-04-26T06:48:18.069Z,12.13
2018-04-26T06:49:18.352Z,12.2
2018-04-26T06:50:18.368Z,12.32
2018-04-26T06:51:18.389Z,12.29
2018-04-26T06:52:18.409Z,12.28
2018-04-26T06:53:33.103Z,12.31
2018-04-26T06:54:18.192Z,12.29
2018-04-26T06:55:18.216Z,12.37
2018-04-26T06:56:18.493Z,12.45
2018-04-26T06:57:18.257Z,12.49
2018-04-26T06:58:18.538Z,12.52
2018-04-26T06:59:18.562Z,12.45
2018-04-26T07:00:18.578Z,12.54
2018-04-26T07:01:18.610Z,12.54
2018-04-26T07:02:33.021Z,12.5
2018-04-26T07:03:18.385Z,12.47
2018-04-26T07:04:18.145Z,12.47
2018-04-26T07:05:18.684Z,12.45
2018-04-26T07:06:18.705Z,12.39
2018-04-26T07:07:18.478Z,12.41
2018-04-26T07:08:18.494Z,12.39
2018-04-26T07:09:18.513Z,12.32
2018-04-26T07:10:33.448Z,12.21
2018-04-26T07:11:18.812Z,12.19
2018-04-26T07:12:18.843Z,12.19
2018-04-26T07:13:18.849Z,12.2
2018-04-26T07:14:18.879Z,12.17
2018-04-26T07:17:33.334Z,12.01
2018-04-26T07:18:18.960Z,12.04
2018-04-26T07:19:18.978Z,12.01
2018-04-26T07:20:19.005Z,12.01
2018-04-26T07:22:18.790Z,12.05
2018-04-26T07:23:19.061Z,11.96
2018-04-26T07:24:19.085Z,11.96
2018-04-26T07:25:19.101Z,11.98
2018-04-26T07:26:33.786Z,11.85
2018-04-26T07:27:19.152Z,11.75
2018-04-26T07:28:19.179Z,11.79
2018-04-26T07:29:19.187Z,11.73
2018-04-26T07:30:19.213Z,11.78
2018-04-26T07:31:19.229Z,11.73
2018-04-26T07:32:19.269Z,11.75
2018-04-26T07:33:19.276Z,11.7
2018-04-26T07:35:19.317Z,11.69
2018-04-26T07:36:19.339Z,11.73
2018-04-26T07:37:19.354Z,11.75
2018-04-26T07:38:19.374Z,11.72
2018-04-26T07:39:19.399Z,11.6
2018-04-26T07:40:34.077Z,11.47
2018-04-26T07:41:19.447Z,11.47
2018-04-26T07:42:19.457Z,11.47
2018-04-26T07:43:19.603Z,11.55
2018-04-26T07:44:19.507Z,11.64
2018-04-26T07:46:19.551Z,11.94
2018-04-26T07:47:19.561Z,12.29
2018-04-26T07:48:19.327Z,12.54
2018-04-26T07:49:34.272Z,13.41
2018-04-26T07:50:19.628Z,13.77
2018-04-26T07:51:19.392Z,14.06
2018-04-26T07:52:19.673Z,14.39
2018-04-26T07:53:19.617Z,14.91
2018-04-26T07:54:19.724Z,15.31
2018-04-26T07:55:19.739Z,15.89
2018-04-26T07:56:19.768Z,16.56
2018-04-26T07:57:34.441Z,17.18
2018-04-26T07:58:19.814Z,17.36
2018-04-26T07:59:19.827Z,17.79
2018-04-26T08:00:19.855Z,18.12
2018-04-26T08:01:19.895Z,17.56
2018-04-26T08:03:19.947Z,17.38
2018-04-26T08:04:19.961Z,17.15
2018-04-26T08:05:34.636Z,17.52
2018-04-26T08:06:20.004Z,18.11
2018-04-26T08:07:20.080Z,18.35
2018-04-26T08:08:20.055Z,18.75
2018-04-26T08:09:20.082Z,18.85
2018-04-26T08:10:34.768Z,19.14
2018-04-26T08:11:20.143Z,19.18
2018-04-26T08:12:19.902Z,18.9
2018-04-26T08:13:20.182Z,18.62
2018-04-26T08:14:19.957Z,18.42
2018-04-26T08:15:20.232Z,19.13
2018-04-26T08:16:34.662Z,19.44
2018-04-26T08:17:19.770Z,19.39
2018-04-26T08:18:20.411Z,19.22
2018-04-26T08:19:20.342Z,19.22
2018-04-26T08:20:20.367Z,19.4
2018-04-26T08:21:35.051Z,19.31
2018-04-26T08:22:35.086Z,19.18
2018-04-26T08:23:20.444Z,19.11
2018-04-26T08:24:20.474Z,19.11
2018-04-26T08:25:20.241Z,18.87
2018-04-26T08:26:20.272Z,18.87
2018-04-26T08:27:20.033Z,19.08
2018-04-26T08:28:20.577Z,19.39
2018-04-26T08:29:20.605Z,19.69
2018-04-26T08:30:20.629Z,19.77
2018-04-26T08:31:20.403Z,19.92
2018-04-26T08:32:20.688Z,20.1
2018-04-26T08:33:20.452Z,20.18
2018-04-26T08:34:20.738Z,20.48
2018-04-26T08:35:20.511Z,21.21
2018-04-26T08:36:20.794Z,21.72
2018-04-26T08:38:20.686Z,20.98
2018-04-26T08:39:20.881Z,20.42
2018-04-26T08:40:20.904Z,19.59
2018-04-26T08:41:20.932Z,18.98
2018-04-26T08:42:20.960Z,18.52
2018-04-26T08:43:21.090Z,17.52
2018-04-26T08:44:21.008Z,17.28
2018-04-26T08:45:20.779Z,16.78
2018-04-26T08:46:21.064Z,16.31
2018-04-26T08:47:21.095Z,15.53
2018-04-26T08:48:20.853Z,15.01
2018-04-26T08:50:21.229Z,14.17
2018-04-26T08:51:21.190Z,13.95
2018-04-26T08:52:35.879Z,13.63
2018-04-26T08:53:21.237Z,13.59
2018-04-26T08:56:21.315Z,13.03
2018-04-26T08:57:21.340Z,12.93
2018-04-26T08:58:21.100Z,12.85
2018-04-26T08:59:21.385Z,12.85
2018-04-26T09:00:36.066Z,12.7
2018-04-26T09:01:21.431Z,12.64
2018-04-26T09:02:21.456Z,12.62
2018-04-26T09:03:21.217Z,12.68
2018-04-26T09:04:21.240Z,12.79
2018-04-26T09:05:21.524Z,12.68
2018-04-26T09:06:21.550Z,12.67
2018-04-26T09:07:21.571Z,12.56
2018-04-26T09:08:21.334Z,12.5
2018-04-26T09:10:21.638Z,12.28
2018-04-26T09:11:21.667Z,12.39
2018-04-26T09:12:21.692Z,12.39
2018-04-26T09:13:21.710Z,12.27
2018-04-26T09:14:21.730Z,12.37
2018-04-26T09:15:21.758Z,12.13
2018-04-26T09:16:21.780Z,12.23
2018-04-26T09:17:21.807Z,12.16
2018-04-26T09:18:21.820Z,12.16
2018-04-26T09:19:21.585Z,12.16
2018-04-26T09:20:21.871Z,11.79
2018-04-26T09:21:21.888Z,11.62
2018-04-26T09:22:21.914Z,11.4
2018-04-26T09:23:21.682Z,11.27
2018-04-26T09:24:36.615Z,11.21
2018-04-26T09:25:21.982Z,11.11
2018-04-26T09:27:21.765Z,10.74
2018-04-26T09:28:22.058Z,10.61
2018-04-26T09:29:21.813Z,10.6
2018-04-26T09:30:22.093Z,10.59
2018-04-26T09:31:22.109Z,10.55
2018-04-26T09:32:21.875Z,10.45
2018-04-26T09:33:22.156Z,10.29
2018-04-26T09:34:21.916Z,10.27
2018-04-26T09:35:22.197Z,10.18
2018-04-26T09:37:21.980Z,10.26
2018-04-26T09:38:22.268Z,10.3
2018-04-26T09:39:22.025Z,10.18
2018-04-26T09:40:36.962Z,10.05
2018-04-26T09:42:22.091Z,10.23
2018-04-26T09:43:22.367Z,10.07
2018-04-26T09:44:22.392Z,10.05
2018-04-26T09:45:22.422Z,10.26
2018-04-26T09:46:21.912Z,10.2
2018-04-26T09:47:22.196Z,10.29
2018-04-26T09:48:37.177Z,10.41
2018-04-26T09:49:22.233Z,10.29
2018-04-26T09:50:22.515Z,10.51
2018-04-26T09:51:22.537Z,10.66
2018-04-26T09:52:22.041Z,10.88
2018-04-26T09:53:22.581Z,11.07
2018-04-26T09:54:22.677Z,11.07
2018-04-26T09:55:22.688Z,11.21
2018-04-26T09:56:37.047Z,11.24
2018-04-26T09:58:22.688Z,11.32
2018-04-26T09:59:22.708Z,11.29
2018-04-26T10:00:22.736Z,11.7
2018-04-26T10:01:22.753Z,11.8
2018-04-26T10:02:37.436Z,12.17
2018-04-26T10:06:22.860Z,12.19
2018-04-26T10:07:22.889Z,12.14
2018-04-26T10:08:22.908Z,12.04
2018-04-26T10:09:22.668Z,12.17
2018-04-26T10:10:22.954Z,12.27
2018-04-26T10:11:22.973Z,12.13
2018-04-26T10:12:37.395Z,12.35
2018-04-26T10:14:22.780Z,12.72
2018-04-26T10:15:22.797Z,13.05
2018-04-26T10:16:23.087Z,13.39
2018-04-26T10:17:23.104Z,13.49
2018-04-26T10:18:23.141Z,13.6
2018-04-26T10:19:23.156Z,13.73
2018-04-26T10:20:23.174Z,14.07
2018-04-26T10:21:22.944Z,14.25
2018-04-26T10:22:22.701Z,14.22
2018-04-26T10:23:23.239Z,14.42
2018-04-26T10:24:23.266Z,14.18
2018-04-26T10:25:23.287Z,14.02
2018-04-26T10:26:23.316Z,13.91
2018-04-26T10:28:23.099Z,13.57
2018-04-26T10:30:23.407Z,13.64
2018-04-26T10:31:23.429Z,13.52
2018-04-26T10:32:38.191Z,13.48
2018-04-26T10:33:23.223Z,13.55
2018-04-26T10:34:38.161Z,13.63
2018-04-26T10:35:23.718Z,13.63
2018-04-26T10:36:38.212Z,13.51
2018-04-26T10:37:23.581Z,13.6
2018-04-26T10:38:23.606Z,13.69
2018-04-26T10:39:23.620Z,13.71
2018-04-26T10:40:23.641Z,13.89
2018-04-26T10:41:23.664Z,14.12
2018-04-26T10:42:23.434Z,14.2
2018-04-26T10:43:23.717Z,14.36
2018-04-26T10:44:23.926Z,14.28
2018-04-26T10:45:23.532Z,14.37
2018-04-26T10:46:23.782Z,14.35
2018-04-26T10:47:23.806Z,14.4
2018-04-26T10:48:23.826Z,14.47
2018-04-26T10:49:23.851Z,14.4
2018-04-26T10:50:23.879Z,14.42
2018-04-26T10:51:23.902Z,14.43
2018-04-26T10:53:23.947Z,14.46
2018-04-26T10:54:23.980Z,14.21
2018-04-26T10:55:23.739Z,13.99
2018-04-26T10:56:23.757Z,13.66
2018-04-26T10:57:23.783Z,13.48
2018-04-26T10:58:24.070Z,13.29
2018-04-26T10:59:38.749Z,13.12
2018-04-26T11:00:24.112Z,13.25
2018-04-26T11:01:24.139Z,13.12
2018-04-26T11:02:24.163Z,13.11
2018-04-26T11:03:24.182Z,13.2
2018-04-26T11:04:24.203Z,13.2
2018-04-26T11:05:24.241Z,13.26
2018-04-26T11:06:24.254Z,13.36
2018-04-26T11:07:24.276Z,13.38
2018-04-26T11:08:24.294Z,13.46
2018-04-26T11:09:24.417Z,13.45
2018-04-26T11:10:24.338Z,13.62
2018-04-26T11:11:24.541Z,13.62
2018-04-26T11:12:24.389Z,13.48
2018-04-26T11:13:24.156Z,13.49
2018-04-26T11:14:24.428Z,13.6
2018-04-26T11:15:39.233Z,13.62
2018-04-26T11:16:24.477Z,13.82
2018-04-26T11:17:24.653Z,13.97
2018-04-26T11:18:24.522Z,14.14
2018-04-26T11:19:24.562Z,14.27
2018-04-26T11:20:24.571Z,14.18
2018-04-26T11:21:24.456Z,14.22
2018-04-26T11:22:24.355Z,14.09
2018-04-26T11:23:24.845Z,14.14
2018-04-26T11:24:24.786Z,14.07
2018-04-26T11:25:24.427Z,14.06
2018-04-26T11:26:24.706Z,14.07
2018-04-26T11:27:24.482Z,14.12
2018-04-26T11:28:24.752Z,14.09
2018-04-26T11:29:25.112Z,14.12
2018-04-26T11:31:39.477Z,14.18
2018-04-26T11:32:24.845Z,14.18
2018-04-26T11:33:24.872Z,14.17
2018-04-26T11:34:24.889Z,14.15
2018-04-26T11:35:24.910Z,14.1
2018-04-26T11:36:24.934Z,14.1
2018-04-26T11:37:24.962Z,13.97
2018-04-26T11:38:39.644Z,13.84
2018-04-26T11:39:25.008Z,13.97
2018-04-26T11:40:24.771Z,14.02
2018-04-26T11:41:25.050Z,14.32
2018-04-26T11:44:25.124Z,14.21
2018-04-26T11:45:25.146Z,14
2018-04-26T11:46:24.658Z,13.85
2018-04-26T11:47:39.852Z,13.69
2018-04-26T11:48:25.213Z,13.6
2018-04-26T11:49:25.260Z,13.64
2018-04-26T11:51:25.446Z,13.57
2018-04-26T11:52:25.434Z,13.51
2018-04-26T11:53:25.378Z,13.55
2018-04-26T11:54:25.374Z,13.64
2018-04-26T11:55:25.370Z,14.04
2018-04-26T11:57:25.417Z,14.52
2018-04-26T11:58:25.440Z,14.69
2018-04-26T11:59:25.470Z,14.68
2018-04-26T12:00:25.486Z,14.51
2018-04-26T12:01:25.512Z,14.61
2018-04-26T12:02:40.617Z,14.65
2018-04-26T12:04:25.058Z,14.73
2018-04-26T12:05:25.338Z,14.86
2018-04-26T12:06:40.286Z,14.77
2018-04-26T12:07:25.648Z,15.03
2018-04-26T12:08:40.330Z,15.21
2018-04-26T12:09:25.432Z,15.21
2018-04-26T12:10:25.716Z,15.29
2018-04-26T12:11:25.738Z,15.46
2018-04-26T12:12:40.434Z,15.38
2018-04-26T12:13:25.795Z,15.39
2018-04-26T12:14:25.545Z,15.29
2018-04-26T12:15:25.578Z,15.14
2018-04-26T12:16:25.954Z,15.01
2018-04-26T12:17:25.620Z,14.68
2018-04-26T12:18:25.705Z,14.64
2018-04-26T12:19:25.923Z,14.86
2018-04-26T12:20:25.944Z,14.94
2018-04-26T12:21:25.969Z,15.07
2018-04-26T12:22:25.991Z,14.81
2018-04-26T12:23:26.016Z,14.75
2018-04-26T12:24:26.037Z,14.62
2018-04-26T12:25:26.064Z,14.45
2018-04-26T12:26:25.823Z,14.32
2018-04-26T12:27:40.518Z,14.2
2018-04-26T12:28:26.131Z,14.12
2018-04-26T12:29:26.449Z,14.04
2018-04-26T12:30:26.276Z,14.12
2018-04-26T12:31:26.198Z,13.99
2018-04-26T12:32:26.219Z,14.09
2018-04-26T12:33:26.242Z,14.12
2018-04-26T12:34:40.924Z,14.43
2018-04-26T12:35:26.036Z,14.73
2018-04-26T12:36:26.124Z,14.89
2018-04-26T12:37:26.341Z,15.31
2018-04-26T12:38:26.360Z,15.34
2018-04-26T12:39:26.379Z,15.34
2018-04-26T12:40:26.408Z,15.46
2018-04-26T12:41:41.087Z,15.57
2018-04-26T12:42:26.378Z,15.69
2018-04-26T12:43:26.469Z,15.8
2018-04-26T12:44:26.499Z,15.56
2018-04-26T12:45:26.259Z,15.44
2018-04-26T12:46:26.542Z,15.35
2018-04-26T12:47:26.561Z,15.34
2018-04-26T12:48:26.586Z,15.41
2018-04-26T12:49:26.351Z,15.56
2018-04-26T12:50:41.301Z,15.97
2018-04-26T12:52:26.427Z,15.86
2018-04-26T12:53:26.186Z,15.82
2018-04-26T12:54:41.393Z,15.76
2018-04-26T12:55:26.750Z,15.86
2018-04-26T12:56:26.515Z,16.05
2018-04-26T12:57:26.798Z,16.01
2018-04-26T12:58:41.480Z,16.14
2018-04-26T12:59:41.501Z,16.17
2018-04-26T13:00:26.604Z,15.92
2018-04-26T13:01:26.889Z,15.71
2018-04-26T13:02:26.754Z,15.6
2018-04-26T13:03:26.943Z,15.53
2018-04-26T13:04:26.965Z,15.46
2018-04-26T13:05:26.982Z,15.49
2018-04-26T13:06:41.667Z,15.41
2018-04-26T13:07:26.866Z,15.28
2018-04-26T13:08:26.790Z,15.09
2018-04-26T13:09:27.097Z,15.13
2018-04-26T13:10:26.851Z,15.11
2018-04-26T13:11:26.861Z,14.88
2018-04-26T13:12:26.885Z,14.65
2018-04-26T13:13:27.168Z,14.6
2018-04-26T13:14:27.189Z,14.47
2018-04-26T13:15:27.268Z,14.51
2018-04-26T13:16:27.236Z,14.47
2018-04-26T13:17:41.658Z,14.35
2018-04-26T13:18:27.282Z,14.2
2018-04-26T13:19:27.301Z,13.85
2018-04-26T13:20:27.071Z,13.22
2018-04-26T13:21:27.565Z,12.53
2018-04-26T13:22:41.771Z,12.01
2018-04-26T13:23:27.540Z,11.78
2018-04-26T13:24:27.419Z,11.78
2018-04-26T13:25:27.439Z,11.43
2018-04-26T13:26:26.943Z,11.43
2018-04-26T13:27:27.267Z,11.42
2018-04-26T13:28:27.503Z,11.33
2018-04-26T13:29:27.639Z,11.24
2018-04-26T13:30:42.207Z,11.06
2018-04-26T13:31:27.315Z,11.18
2018-04-26T13:32:27.589Z,11.37
2018-04-26T13:33:27.358Z,11.55
2018-04-26T13:35:27.405Z,11.82
2018-04-26T13:36:27.881Z,12.04
2018-04-26T13:37:42.102Z,12.27
2018-04-26T13:38:27.471Z,12.35
2018-04-26T13:39:27.226Z,12.46
2018-04-26T13:40:27.508Z,12.49
2018-04-26T13:42:27.294Z,12.77
2018-04-26T13:43:27.834Z,12.89
2018-04-26T13:44:27.858Z,12.89
2018-04-26T13:45:27.884Z,12.95
2018-04-26T13:46:42.717Z,13.01
2018-04-26T13:47:27.662Z,13.1
2018-04-26T13:48:27.941Z,13.03
2018-04-26T13:49:27.711Z,13.17
2018-04-26T13:52:28.030Z,13.3
2018-04-26T13:54:27.818Z,13.52
2018-04-26T13:55:28.131Z,13.38
2018-04-26T13:56:28.121Z,13.49
2018-04-26T13:57:28.149Z,13.33
2018-04-26T13:58:28.166Z,13.3
2018-04-26T13:59:28.194Z,13.32
2018-04-26T14:00:42.876Z,13.46
2018-04-26T14:01:27.975Z,13.54
2018-04-26T14:02:28.255Z,13.57
2018-04-26T14:03:28.281Z,13.66
2018-04-26T14:04:28.053Z,13.89
2018-04-26T14:05:28.070Z,13.89
2018-04-26T14:06:28.351Z,13.87
2018-04-26T14:07:28.441Z,14.03
2018-04-26T14:09:43.079Z,14.32
2018-04-26T14:10:28.438Z,14.35
2018-04-26T14:11:28.459Z,14.42
2018-04-26T14:13:28.246Z,14.1
2018-04-26T14:14:28.268Z,13.92